Terminal Aerodrome Forecast
Issued by NWS

Home | Current Version | Previous Version | Text Only | Print | Product List | Glossary On
Versions: 1 2 3 4 5 6 7 8 9 10 11 12 13 14 15 16 17 18 19 20 21 22 23 24 25 26 27 28 29 30 31 32 33 34 35
000
FTAK31 PANC 250729 AAA
TAFATK
TAF AMD
PATK 250729Z 2507/2606 18005KT P6SM -RA SCT012 OVC050
      TEMPO 2507/2510 BKN009
     FM251000 VRB03KT P6SM -RA SCT012 OVC025
     FM251800 VRB03KT P6SM -RA SCT025 OVC045
     FM260000 VRB04KT P6SM VCSH SCT045 BKN080=

USA.gov is the U.S. government's official web portal to all federal, state and local government web resources and services.